sensor_id;sensor_type;location;lat;lon;timestamp;P1;durP1;ratioP1;P2;durP2;ratioP2
24259;SDS011;12384;48.112;18.418;2022-08-27T00:02:12;14.27;;;13.07;;
24259;SDS011;12384;48.112;18.418;2022-08-27T00:04:43;13.37;;;12.33;;
24259;SDS011;12384;48.112;18.418;2022-08-27T00:07:12;12.60;;;11.70;;
24259;SDS011;12384;48.112;18.418;2022-08-27T00:09:40;12.63;;;11.73;;
24259;SDS011;12384;48.112;18.418;2022-08-27T00:12:09;13.77;;;12.53;;
24259;SDS011;12384;48.112;18.418;2022-08-27T00:18:16;13.03;;;12.03;;
24259;SDS011;12384;48.112;18.418;2022-08-27T00:27:58;14.33;;;12.30;;
24259;SDS011;12384;48.112;18.418;2022-08-27T00:31:08;13.57;;;12.43;;
24259;SDS011;12384;48.112;18.418;2022-08-27T00:34:12;12.90;;;12.00;;
24259;SDS011;12384;48.112;18.418;2022-08-27T00:40:11;13.97;;;12.67;;
24259;SDS011;12384;48.112;18.418;2022-08-27T00:43:21;14.30;;;12.80;;
24259;SDS011;12384;48.112;18.418;2022-08-27T00:45:52;13.87;;;12.63;;
24259;SDS011;12384;48.112;18.418;2022-08-27T00:48:25;13.33;;;12.23;;
24259;SDS011;12384;48.112;18.418;2022-08-27T00:50:57;12.60;;;11.80;;
24259;SDS011;12384;48.112;18.418;2022-08-27T00:53:26;12.90;;;11.90;;
24259;SDS011;12384;48.112;18.418;2022-08-27T00:56:00;13.63;;;12.47;;
24259;SDS011;12384;48.112;18.418;2022-08-27T00:58:33;13.67;;;12.47;;
24259;SDS011;12384;48.112;18.418;2022-08-27T01:01:04;12.47;;;11.37;;
24259;SDS011;12384;48.112;18.418;2022-08-27T01:03:35;12.63;;;11.63;;
24259;SDS011;12384;48.112;18.418;2022-08-27T01:06:04;12.30;;;11.40;;
24259;SDS011;12384;48.112;18.418;2022-08-27T01:08:42;12.57;;;11.57;;
24259;SDS011;12384;48.112;18.418;2022-08-27T01:11:13;11.63;;;10.80;;
24259;SDS011;12384;48.112;18.418;2022-08-27T01:13:43;11.77;;;10.93;;
24259;SDS011;12384;48.112;18.418;2022-08-27T01:16:27;11.93;;;10.87;;
24259;SDS011;12384;48.112;18.418;2022-08-27T01:19:01;11.97;;;11.00;;
24259;SDS011;12384;48.112;18.418;2022-08-27T01:21:34;11.57;;;10.73;;
24259;SDS011;12384;48.112;18.418;2022-08-27T01:24:21;11.57;;;10.60;;
24259;SDS011;12384;48.112;18.418;2022-08-27T01:26:57;11.00;;;10.30;;
24259;SDS011;12384;48.112;18.418;2022-08-27T01:29:27;12.10;;;11.20;;
24259;SDS011;12384;48.112;18.418;2022-08-27T01:31:57;12.10;;;11.13;;
24259;SDS011;12384;48.112;18.418;2022-08-27T01:34:26;11.23;;;10.53;;
24259;SDS011;12384;48.112;18.418;2022-08-27T01:36:55;11.57;;;10.70;;
24259;SDS011;12384;48.112;18.418;2022-08-27T01:39:25;11.30;;;10.60;;
24259;SDS011;12384;48.112;18.418;2022-08-27T01:41:54;12.77;;;11.67;;
24259;SDS011;12384;48.112;18.418;2022-08-27T01:44:40;13.17;;;12.07;;
24259;SDS011;12384;48.112;18.418;2022-08-27T01:47:13;13.60;;;12.43;;
24259;SDS011;12384;48.112;18.418;2022-08-27T01:49:42;13.40;;;12.23;;
24259;SDS011;12384;48.112;18.418;2022-08-27T01:52:10;15.07;;;12.97;;
24259;SDS011;12384;48.112;18.418;2022-08-27T01:54:42;14.70;;;13.30;;
24259;SDS011;12384;48.112;18.418;2022-08-27T01:57:11;14.10;;;12.83;;
24259;SDS011;12384;48.112;18.418;2022-08-27T01:59:40;13.53;;;12.33;;
24259;SDS011;12384;48.112;18.418;2022-08-27T02:02:08;13.33;;;12.30;;
24259;SDS011;12384;48.112;18.418;2022-08-27T02:04:38;13.23;;;12.17;;
24259;SDS011;12384;48.112;18.418;2022-08-27T02:07:07;13.20;;;12.17;;
24259;SDS011;12384;48.112;18.418;2022-08-27T02:09:35;13.07;;;11.97;;
24259;SDS011;12384;48.112;18.418;2022-08-27T02:12:05;13.50;;;12.37;;
24259;SDS011;12384;48.112;18.418;2022-08-27T02:14:34;13.17;;;11.87;;
24259;SDS011;12384;48.112;18.418;2022-08-27T02:17:02;12.97;;;11.87;;
24259;SDS011;12384;48.112;18.418;2022-08-27T02:19:31;12.57;;;11.47;;
24259;SDS011;12384;48.112;18.418;2022-08-27T02:21:59;13.17;;;12.10;;
24259;SDS011;12384;48.112;18.418;2022-08-27T02:24:28;12.10;;;11.10;;
24259;SDS011;12384;48.112;18.418;2022-08-27T02:26:56;12.97;;;11.97;;
24259;SDS011;12384;48.112;18.418;2022-08-27T02:29:27;12.80;;;11.70;;
24259;SDS011;12384;48.112;18.418;2022-08-27T02:31:55;13.57;;;11.53;;
24259;SDS011;12384;48.112;18.418;2022-08-27T02:34:24;12.73;;;11.53;;
24259;SDS011;12384;48.112;18.418;2022-08-27T02:36:52;12.50;;;11.40;;
24259;SDS011;12384;48.112;18.418;2022-08-27T02:39:21;11.60;;;10.77;;
24259;SDS011;12384;48.112;18.418;2022-08-27T02:41:49;13.83;;;12.43;;
24259;SDS011;12384;48.112;18.418;2022-08-27T02:44:18;13.80;;;12.60;;
24259;SDS011;12384;48.112;18.418;2022-08-27T02:46:48;12.37;;;11.43;;
24259;SDS011;12384;48.112;18.418;2022-08-27T02:49:19;12.57;;;11.37;;
24259;SDS011;12384;48.112;18.418;2022-08-27T02:51:47;11.83;;;10.93;;
24259;SDS011;12384;48.112;18.418;2022-08-27T02:54:20;11.87;;;10.87;;
24259;SDS011;12384;48.112;18.418;2022-08-27T02:56:52;12.77;;;11.60;;
24259;SDS011;12384;48.112;18.418;2022-08-27T02:59:20;12.23;;;11.40;;
24259;SDS011;12384;48.112;18.418;2022-08-27T03:01:50;12.97;;;11.80;;
24259;SDS011;12384;48.112;18.418;2022-08-27T03:04:19;12.67;;;11.70;;
24259;SDS011;12384;48.112;18.418;2022-08-27T03:06:48;11.70;;;11.00;;
24259;SDS011;12384;48.112;18.418;2022-08-27T03:09:17;13.17;;;12.00;;
24259;SDS011;12384;48.112;18.418;2022-08-27T03:11:45;12.93;;;11.60;;
24259;SDS011;12384;48.112;18.418;2022-08-27T03:14:14;11.73;;;10.93;;
24259;SDS011;12384;48.112;18.418;2022-08-27T03:16:42;12.70;;;11.70;;
24259;SDS011;12384;48.112;18.418;2022-08-27T03:19:12;13.80;;;12.03;;
24259;SDS011;12384;48.112;18.418;2022-08-27T03:21:49;12.20;;;11.30;;
24259;SDS011;12384;48.112;18.418;2022-08-27T03:24:20;12.53;;;11.43;;
24259;SDS011;12384;48.112;18.418;2022-08-27T03:26:48;12.47;;;11.23;;
24259;SDS011;12384;48.112;18.418;2022-08-27T03:29:19;13.50;;;11.57;;
24259;SDS011;12384;48.112;18.418;2022-08-27T03:31:47;12.17;;;11.27;;
24259;SDS011;12384;48.112;18.418;2022-08-27T03:34:17;12.03;;;11.23;;
24259;SDS011;12384;48.112;18.418;2022-08-27T03:36:46;11.60;;;10.57;;
24259;SDS011;12384;48.112;18.418;2022-08-27T03:39:17;12.20;;;11.27;;
24259;SDS011;12384;48.112;18.418;2022-08-27T03:41:46;11.10;;;10.30;;
24259;SDS011;12384;48.112;18.418;2022-08-27T03:44:21;10.63;;;9.93;;
24259;SDS011;12384;48.112;18.418;2022-08-27T03:46:50;10.97;;;10.17;;
24259;SDS011;12384;48.112;18.418;2022-08-27T03:49:20;11.37;;;10.57;;
24259;SDS011;12384;48.112;18.418;2022-08-27T03:51:49;10.73;;;10.13;;
24259;SDS011;12384;48.112;18.418;2022-08-27T03:54:19;12.60;;;11.43;;
24259;SDS011;12384;48.112;18.418;2022-08-27T03:56:48;11.77;;;10.87;;
24259;SDS011;12384;48.112;18.418;2022-08-27T03:59:16;11.20;;;10.50;;
24259;SDS011;12384;48.112;18.418;2022-08-27T04:01:45;12.30;;;11.50;;
24259;SDS011;12384;48.112;18.418;2022-08-27T04:04:14;11.83;;;11.03;;
24259;SDS011;12384;48.112;18.418;2022-08-27T04:06:44;11.40;;;10.70;;
24259;SDS011;12384;48.112;18.418;2022-08-27T04:09:12;11.73;;;10.93;;
24259;SDS011;12384;48.112;18.418;2022-08-27T04:11:42;12.20;;;11.27;;
24259;SDS011;12384;48.112;18.418;2022-08-27T04:14:10;13.10;;;12.27;;
24259;SDS011;12384;48.112;18.418;2022-08-27T04:16:53;12.47;;;11.57;;
24259;SDS011;12384;48.112;18.418;2022-08-27T04:19:22;12.53;;;11.63;;
24259;SDS011;12384;48.112;18.418;2022-08-27T04:21:58;12.50;;;11.60;;
24259;SDS011;12384;48.112;18.418;2022-08-27T04:24:28;10.53;;;9.83;;
24259;SDS011;12384;48.112;18.418;2022-08-27T04:26:58;10.60;;;10.00;;
24259;SDS011;12384;48.112;18.418;2022-08-27T04:29:27;11.63;;;10.93;;
24259;SDS011;12384;48.112;18.418;2022-08-27T04:31:58;11.40;;;10.70;;
24259;SDS011;12384;48.112;18.418;2022-08-27T04:34:26;10.90;;;10.20;;
24259;SDS011;12384;48.112;18.418;2022-08-27T04:36:55;11.80;;;11.00;;
24259;SDS011;12384;48.112;18.418;2022-08-27T04:39:29;11.67;;;10.47;;
24259;SDS011;12384;48.112;18.418;2022-08-27T04:41:59;11.80;;;11.00;;
24259;SDS011;12384;48.112;18.418;2022-08-27T04:44:29;12.40;;;11.60;;
24259;SDS011;12384;48.112;18.418;2022-08-27T04:47:02;12.23;;;11.27;;
24259;SDS011;12384;48.112;18.418;2022-08-27T04:49:32;11.07;;;10.37;;
24259;SDS011;12384;48.112;18.418;2022-08-27T04:52:01;11.77;;;11.00;;
24259;SDS011;12384;48.112;18.418;2022-08-27T04:54:31;10.90;;;10.20;;
24259;SDS011;12384;48.112;18.418;2022-08-27T04:57:00;10.87;;;10.20;;
24259;SDS011;12384;48.112;18.418;2022-08-27T04:59:30;11.27;;;10.30;;
24259;SDS011;12384;48.112;18.418;2022-08-27T05:02:01;10.37;;;9.67;;
24259;SDS011;12384;48.112;18.418;2022-08-27T05:04:30;11.60;;;10.60;;
24259;SDS011;12384;48.112;18.418;2022-08-27T05:07:00;10.77;;;9.97;;
24259;SDS011;12384;48.112;18.418;2022-08-27T05:09:29;10.13;;;9.43;;
24259;SDS011;12384;48.112;18.418;2022-08-27T05:11:59;9.98;;;9.38;;
24259;SDS011;12384;48.112;18.418;2022-08-27T05:14:27;10.33;;;9.73;;
24259;SDS011;12384;48.112;18.418;2022-08-27T05:16:58;10.50;;;9.60;;
24259;SDS011;12384;48.112;18.418;2022-08-27T05:19:26;10.07;;;9.15;;
24259;SDS011;12384;48.112;18.418;2022-08-27T05:21:55;10.07;;;9.38;;
24259;SDS011;12384;48.112;18.418;2022-08-27T05:24:23;9.13;;;8.52;;
24259;SDS011;12384;48.112;18.418;2022-08-27T05:26:51;9.23;;;8.63;;
24259;SDS011;12384;48.112;18.418;2022-08-27T05:29:21;9.27;;;8.60;;
24259;SDS011;12384;48.112;18.418;2022-08-27T05:31:49;9.88;;;8.88;;
24259;SDS011;12384;48.112;18.418;2022-08-27T05:34:18;9.05;;;8.30;;
24259;SDS011;12384;48.112;18.418;2022-08-27T05:36:52;9.48;;;8.82;;
24259;SDS011;12384;48.112;18.418;2022-08-27T05:39:21;9.73;;;9.02;;
24259;SDS011;12384;48.112;18.418;2022-08-27T05:41:49;10.65;;;9.70;;
24259;SDS011;12384;48.112;18.418;2022-08-27T05:44:19;10.23;;;9.43;;
24259;SDS011;12384;48.112;18.418;2022-08-27T05:47:08;9.10;;;8.50;;
24259;SDS011;12384;48.112;18.418;2022-08-27T05:49:37;9.70;;;8.90;;
24259;SDS011;12384;48.112;18.418;2022-08-27T05:52:07;9.98;;;9.30;;
24259;SDS011;12384;48.112;18.418;2022-08-27T05:54:36;10.20;;;9.40;;
24259;SDS011;12384;48.112;18.418;2022-08-27T05:57:05;9.35;;;8.70;;
24259;SDS011;12384;48.112;18.418;2022-08-27T05:59:34;8.52;;;8.02;;
24259;SDS011;12384;48.112;18.418;2022-08-27T06:02:21;8.60;;;8.10;;
24259;SDS011;12384;48.112;18.418;2022-08-27T06:04:50;9.27;;;8.48;;
24259;SDS011;12384;48.112;18.418;2022-08-27T06:07:19;9.82;;;8.90;;
24259;SDS011;12384;48.112;18.418;2022-08-27T06:09:47;10.73;;;9.80;;
24259;SDS011;12384;48.112;18.418;2022-08-27T06:12:16;11.05;;;10.00;;
24259;SDS011;12384;48.112;18.418;2022-08-27T06:14:52;9.73;;;9.13;;
24259;SDS011;12384;48.112;18.418;2022-08-27T06:17:22;10.63;;;9.65;;
24259;SDS011;12384;48.112;18.418;2022-08-27T06:19:51;9.88;;;9.10;;
24259;SDS011;12384;48.112;18.418;2022-08-27T06:22:19;10.05;;;9.40;;
24259;SDS011;12384;48.112;18.418;2022-08-27T06:24:48;9.45;;;8.75;;
24259;SDS011;12384;48.112;18.418;2022-08-27T06:27:16;10.32;;;9.55;;
24259;SDS011;12384;48.112;18.418;2022-08-27T06:29:46;10.68;;;9.68;;
24259;SDS011;12384;48.112;18.418;2022-08-27T06:32:14;11.07;;;10.07;;
24259;SDS011;12384;48.112;18.418;2022-08-27T06:34:44;11.07;;;10.10;;
24259;SDS011;12384;48.112;18.418;2022-08-27T06:37:12;9.98;;;9.27;;
24259;SDS011;12384;48.112;18.418;2022-08-27T06:39:41;9.45;;;8.85;;
24259;SDS011;12384;48.112;18.418;2022-08-27T06:42:10;10.13;;;9.43;;
24259;SDS011;12384;48.112;18.418;2022-08-27T06:44:39;10.65;;;9.85;;
24259;SDS011;12384;48.112;18.418;2022-08-27T06:47:08;10.45;;;9.55;;
24259;SDS011;12384;48.112;18.418;2022-08-27T06:49:37;9.30;;;8.60;;
24259;SDS011;12384;48.112;18.418;2022-08-27T06:52:13;10.05;;;9.35;;
24259;SDS011;12384;48.112;18.418;2022-08-27T06:54:41;10.50;;;9.90;;
24259;SDS011;12384;48.112;18.418;2022-08-27T06:57:10;9.50;;;8.88;;
24259;SDS011;12384;48.112;18.418;2022-08-27T06:59:38;9.23;;;8.60;;
24259;SDS011;12384;48.112;18.418;2022-08-27T07:02:07;10.00;;;9.40;;
24259;SDS011;12384;48.112;18.418;2022-08-27T07:04:35;10.07;;;9.25;;
24259;SDS011;12384;48.112;18.418;2022-08-27T07:07:04;10.10;;;9.40;;
24259;SDS011;12384;48.112;18.418;2022-08-27T07:09:34;9.55;;;8.93;;
24259;SDS011;12384;48.112;18.418;2022-08-27T07:12:03;9.75;;;9.05;;
24259;SDS011;12384;48.112;18.418;2022-08-27T07:14:32;9.43;;;8.63;;
24259;SDS011;12384;48.112;18.418;2022-08-27T07:17:04;10.45;;;9.70;;
24259;SDS011;12384;48.112;18.418;2022-08-27T07:19:36;10.00;;;9.32;;
24259;SDS011;12384;48.112;18.418;2022-08-27T07:22:06;10.80;;;10.00;;
24259;SDS011;12384;48.112;18.418;2022-08-27T07:24:37;10.63;;;9.73;;
24259;SDS011;12384;48.112;18.418;2022-08-27T07:27:06;9.63;;;9.02;;
24259;SDS011;12384;48.112;18.418;2022-08-27T07:29:35;9.90;;;9.23;;
24259;SDS011;12384;48.112;18.418;2022-08-27T07:32:04;10.35;;;9.45;;
24259;SDS011;12384;48.112;18.418;2022-08-27T07:34:32;9.70;;;9.00;;
24259;SDS011;12384;48.112;18.418;2022-08-27T07:37:01;10.18;;;9.35;;
24259;SDS011;12384;48.112;18.418;2022-08-27T07:39:30;10.35;;;9.60;;
24259;SDS011;12384;48.112;18.418;2022-08-27T07:41:59;10.32;;;9.38;;
24259;SDS011;12384;48.112;18.418;2022-08-27T07:44:45;9.60;;;8.93;;
24259;SDS011;12384;48.112;18.418;2022-08-27T07:47:13;10.02;;;9.20;;
24259;SDS011;12384;48.112;18.418;2022-08-27T07:49:42;9.15;;;8.45;;
24259;SDS011;12384;48.112;18.418;2022-08-27T07:52:10;8.52;;;7.93;;
24259;SDS011;12384;48.112;18.418;2022-08-27T07:54:39;8.82;;;8.23;;
24259;SDS011;12384;48.112;18.418;2022-08-27T07:57:09;8.65;;;8.05;;
24259;SDS011;12384;48.112;18.418;2022-08-27T07:59:38;9.02;;;8.32;;
24259;SDS011;12384;48.112;18.418;2022-08-27T08:02:06;8.75;;;8.20;;
24259;SDS011;12384;48.112;18.418;2022-08-27T08:04:34;9.30;;;8.55;;
24259;SDS011;12384;48.112;18.418;2022-08-27T08:07:03;9.68;;;8.77;;
24259;SDS011;12384;48.112;18.418;2022-08-27T08:09:31;9.40;;;8.60;;
24259;SDS011;12384;48.112;18.418;2022-08-27T08:12:00;9.43;;;8.55;;
24259;SDS011;12384;48.112;18.418;2022-08-27T08:14:30;8.90;;;8.30;;
24259;SDS011;12384;48.112;18.418;2022-08-27T08:16:59;8.85;;;8.25;;
24259;SDS011;12384;48.112;18.418;2022-08-27T08:19:29;8.40;;;7.90;;
24259;SDS011;12384;48.112;18.418;2022-08-27T08:21:58;8.57;;;7.88;;
24259;SDS011;12384;48.112;18.418;2022-08-27T08:24:31;8.45;;;7.95;;
24259;SDS011;12384;48.112;18.418;2022-08-27T08:27:00;8.20;;;7.80;;
24259;SDS011;12384;48.112;18.418;2022-08-27T08:29:34;9.07;;;8.38;;
24259;SDS011;12384;48.112;18.418;2022-08-27T08:32:03;8.43;;;7.65;;
24259;SDS011;12384;48.112;18.418;2022-08-27T08:34:32;8.10;;;7.70;;
24259;SDS011;12384;48.112;18.418;2022-08-27T08:37:02;8.82;;;7.90;;
24259;SDS011;12384;48.112;18.418;2022-08-27T08:39:32;9.13;;;8.43;;
24259;SDS011;12384;48.112;18.418;2022-08-27T08:42:03;9.23;;;8.63;;
24259;SDS011;12384;48.112;18.418;2022-08-27T08:44:35;9.30;;;8.50;;
24259;SDS011;12384;48.112;18.418;2022-08-27T08:47:14;8.65;;;8.15;;
24259;SDS011;12384;48.112;18.418;2022-08-27T08:49:47;9.52;;;8.63;;
24259;SDS011;12384;48.112;18.418;2022-08-27T08:52:25;8.90;;;8.30;;
24259;SDS011;12384;48.112;18.418;2022-08-27T08:55:03;9.00;;;8.40;;
24259;SDS011;12384;48.112;18.418;2022-08-27T08:57:52;8.50;;;7.72;;
24259;SDS011;12384;48.112;18.418;2022-08-27T09:00:31;10.45;;;8.70;;
24259;SDS011;12384;48.112;18.418;2022-08-27T09:03:00;10.18;;;9.27;;
24259;SDS011;12384;48.112;18.418;2022-08-27T09:05:29;9.32;;;8.50;;
24259;SDS011;12384;48.112;18.418;2022-08-27T09:08:01;9.43;;;8.70;;
24259;SDS011;12384;48.112;18.418;2022-08-27T09:10:56;8.90;;;8.30;;
24259;SDS011;12384;48.112;18.418;2022-08-27T09:13:31;8.80;;;8.10;;
24259;SDS011;12384;48.112;18.418;2022-08-27T09:16:06;9.15;;;8.43;;
24259;SDS011;12384;48.112;18.418;2022-08-27T09:18:36;8.45;;;7.85;;
24259;SDS011;12384;48.112;18.418;2022-08-27T09:21:10;9.05;;;8.45;;
24259;SDS011;12384;48.112;18.418;2022-08-27T09:23:56;8.38;;;7.72;;
24259;SDS011;12384;48.112;18.418;2022-08-27T09:26:31;8.70;;;8.10;;
24259;SDS011;12384;48.112;18.418;2022-08-27T09:29:05;8.45;;;7.85;;
24259;SDS011;12384;48.112;18.418;2022-08-27T09:31:51;9.10;;;8.30;;
24259;SDS011;12384;48.112;18.418;2022-08-27T09:34:22;8.85;;;8.25;;
24259;SDS011;12384;48.112;18.418;2022-08-27T09:36:56;8.77;;;8.18;;
24259;SDS011;12384;48.112;18.418;2022-08-27T09:39:32;8.50;;;7.82;;
24259;SDS011;12384;48.112;18.418;2022-08-27T09:42:07;8.73;;;7.82;;
24259;SDS011;12384;48.112;18.418;2022-08-27T09:44:52;9.13;;;8.35;;
24259;SDS011;12384;48.112;18.418;2022-08-27T09:47:22;8.90;;;8.30;;
24259;SDS011;12384;48.112;18.418;2022-08-27T09:50:02;8.93;;;8.10;;
24259;SDS011;12384;48.112;18.418;2022-08-27T09:52:34;9.20;;;8.60;;
24259;SDS011;12384;48.112;18.418;2022-08-27T09:55:04;9.98;;;9.15;;
24259;SDS011;12384;48.112;18.418;2022-08-27T09:57:34;9.48;;;8.68;;
24259;SDS011;12384;48.112;18.418;2022-08-27T10:00:08;10.05;;;9.05;;
24259;SDS011;12384;48.112;18.418;2022-08-27T10:02:49;9.50;;;8.90;;
24259;SDS011;12384;48.112;18.418;2022-08-27T10:05:21;9.98;;;9.05;;
24259;SDS011;12384;48.112;18.418;2022-08-27T10:07:55;9.95;;;9.15;;
24259;SDS011;12384;48.112;18.418;2022-08-27T10:10:31;10.48;;;9.48;;
24259;SDS011;12384;48.112;18.418;2022-08-27T10:13:08;9.38;;;8.82;;
24259;SDS011;12384;48.112;18.418;2022-08-27T10:15:44;9.27;;;8.60;;
24259;SDS011;12384;48.112;18.418;2022-08-27T10:18:25;9.73;;;9.02;;
24259;SDS011;12384;48.112;18.418;2022-08-27T10:21:05;8.68;;;8.07;;
24259;SDS011;12384;48.112;18.418;2022-08-27T10:23:41;9.77;;;8.77;;
24259;SDS011;12384;48.112;18.418;2022-08-27T10:26:16;9.00;;;8.30;;
24259;SDS011;12384;48.112;18.418;2022-08-27T10:28:53;9.57;;;8.77;;
24259;SDS011;12384;48.112;18.418;2022-08-27T10:31:34;9.57;;;8.88;;
24259;SDS011;12384;48.112;18.418;2022-08-27T10:34:11;10.30;;;9.45;;
24259;SDS011;12384;48.112;18.418;2022-08-27T10:36:52;9.93;;;8.90;;
24259;SDS011;12384;48.112;18.418;2022-08-27T10:39:40;9.45;;;8.77;;
24259;SDS011;12384;48.112;18.418;2022-08-27T10:42:19;9.95;;;9.15;;
24259;SDS011;12384;48.112;18.418;2022-08-27T10:44:54;9.15;;;8.40;;
24259;SDS011;12384;48.112;18.418;2022-08-27T10:47:40;9.30;;;8.60;;
24259;SDS011;12384;48.112;18.418;2022-08-27T10:50:20;9.73;;;8.85;;
24259;SDS011;12384;48.112;18.418;2022-08-27T10:52:56;9.77;;;9.07;;
24259;SDS011;12384;48.112;18.418;2022-08-27T10:55:29;8.63;;;8.13;;
24259;SDS011;12384;48.112;18.418;2022-08-27T10:58:06;8.75;;;8.15;;
24259;SDS011;12384;48.112;18.418;2022-08-27T11:00:47;9.35;;;8.25;;
24259;SDS011;12384;48.112;18.418;2022-08-27T11:03:23;8.50;;;7.90;;
24259;SDS011;12384;48.112;18.418;2022-08-27T11:06:02;9.02;;;8.23;;
24259;SDS011;12384;48.112;18.418;2022-08-27T11:08:37;8.75;;;8.05;;
24259;SDS011;12384;48.112;18.418;2022-08-27T11:11:09;9.45;;;8.55;;
24259;SDS011;12384;48.112;18.418;2022-08-27T11:14:00;10.48;;;8.10;;
24259;SDS011;12384;48.112;18.418;2022-08-27T11:16:33;9.65;;;8.85;;
24259;SDS011;12384;48.112;18.418;2022-08-27T11:19:12;9.27;;;8.02;;
24259;SDS011;12384;48.112;18.418;2022-08-27T11:21:50;8.93;;;8.30;;
24259;SDS011;12384;48.112;18.418;2022-08-27T11:24:30;8.18;;;7.57;;
24259;SDS011;12384;48.112;18.418;2022-08-27T11:27:05;8.77;;;8.07;;
24259;SDS011;12384;48.112;18.418;2022-08-27T11:29:37;8.48;;;7.82;;
24259;SDS011;12384;48.112;18.418;2022-08-27T11:32:14;9.48;;;8.68;;
24259;SDS011;12384;48.112;18.418;2022-08-27T11:34:50;9.02;;;8.38;;
24259;SDS011;12384;48.112;18.418;2022-08-27T11:37:38;9.70;;;8.65;;
24259;SDS011;12384;48.112;18.418;2022-08-27T11:40:30;10.50;;;9.63;;
24259;SDS011;12384;48.112;18.418;2022-08-27T11:43:06;9.93;;;9.10;;
24259;SDS011;12384;48.112;18.418;2022-08-27T11:45:38;9.70;;;8.88;;
24259;SDS011;12384;48.112;18.418;2022-08-27T11:48:21;9.77;;;9.02;;
24259;SDS011;12384;48.112;18.418;2022-08-27T11:50:52;9.02;;;8.43;;
24259;SDS011;12384;48.112;18.418;2022-08-27T11:53:26;8.70;;;8.00;;
24259;SDS011;12384;48.112;18.418;2022-08-27T11:55:57;9.48;;;8.88;;
24259;SDS011;12384;48.112;18.418;2022-08-27T11:58:41;9.88;;;9.13;;
24259;SDS011;12384;48.112;18.418;2022-08-27T12:01:23;10.05;;;9.25;;
24259;SDS011;12384;48.112;18.418;2022-08-27T12:03:59;10.25;;;9.23;;
24259;SDS011;12384;48.112;18.418;2022-08-27T12:06:39;9.10;;;8.50;;
24259;SDS011;12384;48.112;18.418;2022-08-27T12:09:15;9.98;;;9.07;;
24259;SDS011;12384;48.112;18.418;2022-08-27T12:11:49;9.48;;;8.88;;
24259;SDS011;12384;48.112;18.418;2022-08-27T12:14:33;9.95;;;9.10;;
24259;SDS011;12384;48.112;18.418;2022-08-27T12:17:11;10.10;;;9.30;;
24259;SDS011;12384;48.112;18.418;2022-08-27T12:19:55;9.73;;;8.93;;
24259;SDS011;12384;48.112;18.418;2022-08-27T12:22:40;10.23;;;9.30;;
24259;SDS011;12384;48.112;18.418;2022-08-27T12:25:35;9.40;;;8.70;;
24259;SDS011;12384;48.112;18.418;2022-08-27T12:28:04;9.60;;;8.80;;
24259;SDS011;12384;48.112;18.418;2022-08-27T12:30:35;9.43;;;8.80;;
24259;SDS011;12384;48.112;18.418;2022-08-27T12:33:09;9.77;;;9.07;;
24259;SDS011;12384;48.112;18.418;2022-08-27T12:35:43;9.68;;;9.02;;
24259;SDS011;12384;48.112;18.418;2022-08-27T12:38:15;9.93;;;9.20;;
24259;SDS011;12384;48.112;18.418;2022-08-27T12:40:48;10.10;;;9.20;;
24259;SDS011;12384;48.112;18.418;2022-08-27T12:43:18;11.27;;;9.95;;
24259;SDS011;12384;48.112;18.418;2022-08-27T12:45:49;10.18;;;9.30;;
24259;SDS011;12384;48.112;18.418;2022-08-27T12:48:23;10.60;;;9.60;;
24259;SDS011;12384;48.112;18.418;2022-08-27T12:50:55;10.20;;;9.50;;
24259;SDS011;12384;48.112;18.418;2022-08-27T12:53:35;9.85;;;9.07;;
24259;SDS011;12384;48.112;18.418;2022-08-27T12:56:21;10.52;;;9.52;;
24259;SDS011;12384;48.112;18.418;2022-08-27T12:59:01;10.85;;;10.05;;
24259;SDS011;12384;48.112;18.418;2022-08-27T13:01:44;9.85;;;9.15;;
24259;SDS011;12384;48.112;18.418;2022-08-27T13:04:24;10.02;;;9.32;;
24259;SDS011;12384;48.112;18.418;2022-08-27T13:06:54;9.90;;;9.20;;
24259;SDS011;12384;48.112;18.418;2022-08-27T13:09:24;9.90;;;9.20;;
24259;SDS011;12384;48.112;18.418;2022-08-27T13:11:57;10.45;;;9.55;;
24259;SDS011;12384;48.112;18.418;2022-08-27T13:14:33;9.90;;;9.05;;
24259;SDS011;12384;48.112;18.418;2022-08-27T13:17:04;10.15;;;9.30;;
24259;SDS011;12384;48.112;18.418;2022-08-27T13:19:37;9.35;;;8.52;;
24259;SDS011;12384;48.112;18.418;2022-08-27T13:22:19;9.40;;;8.70;;
24259;SDS011;12384;48.112;18.418;2022-08-27T13:24:50;9.00;;;8.38;;
24259;SDS011;12384;48.112;18.418;2022-08-27T13:27:24;9.57;;;8.70;;
24259;SDS011;12384;48.112;18.418;2022-08-27T13:29:55;9.55;;;8.90;;
24259;SDS011;12384;48.112;18.418;2022-08-27T13:32:26;9.65;;;8.90;;
24259;SDS011;12384;48.112;18.418;2022-08-27T13:34:56;8.77;;;8.27;;
24259;SDS011;12384;48.112;18.418;2022-08-27T13:37:27;10.00;;;9.30;;
24259;SDS011;12384;48.112;18.418;2022-08-27T13:40:01;10.05;;;9.35;;
24259;SDS011;12384;48.112;18.418;2022-08-27T13:42:31;9.95;;;9.23;;
24259;SDS011;12384;48.112;18.418;2022-08-27T13:45:02;10.02;;;9.10;;
24259;SDS011;12384;48.112;18.418;2022-08-27T13:47:38;9.98;;;9.10;;
24259;SDS011;12384;48.112;18.418;2022-08-27T13:50:11;10.70;;;9.77;;
24259;SDS011;12384;48.112;18.418;2022-08-27T13:52:51;9.80;;;9.10;;
24259;SDS011;12384;48.112;18.418;2022-08-27T13:55:38;9.85;;;9.07;;
24259;SDS011;12384;48.112;18.418;2022-08-27T13:58:17;9.55;;;8.80;;
24259;SDS011;12384;48.112;18.418;2022-08-27T14:00:48;11.10;;;9.57;;
24259;SDS011;12384;48.112;18.418;2022-08-27T14:03:24;10.80;;;9.73;;
24259;SDS011;12384;48.112;18.418;2022-08-27T14:05:57;10.63;;;9.63;;
24259;SDS011;12384;48.112;18.418;2022-08-27T14:08:27;9.35;;;8.65;;
24259;SDS011;12384;48.112;18.418;2022-08-27T14:10:58;11.75;;;8.95;;
24259;SDS011;12384;48.112;18.418;2022-08-27T14:13:36;9.50;;;8.80;;
24259;SDS011;12384;48.112;18.418;2022-08-27T14:16:14;10.30;;;9.32;;
24259;SDS011;12384;48.112;18.418;2022-08-27T14:18:50;9.90;;;9.02;;
24259;SDS011;12384;48.112;18.418;2022-08-27T14:21:25;9.90;;;9.25;;
24259;SDS011;12384;48.112;18.418;2022-08-27T14:23:53;9.73;;;9.00;;
24259;SDS011;12384;48.112;18.418;2022-08-27T14:26:21;9.63;;;8.80;;
24259;SDS011;12384;48.112;18.418;2022-08-27T14:28:53;9.30;;;8.70;;
24259;SDS011;12384;48.112;18.418;2022-08-27T14:31:22;9.88;;;9.27;;
24259;SDS011;12384;48.112;18.418;2022-08-27T14:33:51;9.90;;;9.10;;
24259;SDS011;12384;48.112;18.418;2022-08-27T14:36:21;9.88;;;9.18;;
24259;SDS011;12384;48.112;18.418;2022-08-27T14:38:52;9.65;;;8.95;;
24259;SDS011;12384;48.112;18.418;2022-08-27T14:41:20;9.30;;;8.70;;
24259;SDS011;12384;48.112;18.418;2022-08-27T14:43:50;10.05;;;9.45;;
24259;SDS011;12384;48.112;18.418;2022-08-27T14:46:22;9.63;;;8.93;;
24259;SDS011;12384;48.112;18.418;2022-08-27T14:48:54;18.75;;;10.32;;
24259;SDS011;12384;48.112;18.418;2022-08-27T14:51:26;10.10;;;9.40;;
24259;SDS011;12384;48.112;18.418;2022-08-27T14:53:55;11.20;;;10.50;;
24259;SDS011;12384;48.112;18.418;2022-08-27T14:56:24;11.35;;;10.23;;
24259;SDS011;12384;48.112;18.418;2022-08-27T14:58:53;9.85;;;9.25;;
24259;SDS011;12384;48.112;18.418;2022-08-27T15:01:24;10.32;;;9.63;;
24259;SDS011;12384;48.112;18.418;2022-08-27T15:03:53;11.50;;;10.70;;
24259;SDS011;12384;48.112;18.418;2022-08-27T15:06:22;11.75;;;10.85;;
24259;SDS011;12384;48.112;18.418;2022-08-27T15:08:52;11.43;;;10.32;;
24259;SDS011;12384;48.112;18.418;2022-08-27T15:11:21;12.00;;;10.85;;